createdAt,value
2022-08-14T00:01:55.151Z,94.50
2022-08-14T00:04:34.717Z,94.30
2022-08-14T00:07:14.192Z,94.60
2022-08-14T00:09:55.591Z,94.60
2022-08-14T00:12:33.889Z,94.70
2022-08-14T00:15:18.390Z,94.70
2022-08-14T00:17:53.229Z,95.00
2022-08-14T00:20:30.881Z,95.00
2022-08-14T00:23:16.506Z,94.60
2022-08-14T00:25:59.214Z,94.90
2022-08-14T00:28:36.707Z,94.50
2022-08-14T00:31:35.156Z,94.80
2022-08-14T00:34:37.123Z,94.80
2022-08-14T00:37:02.213Z,95.00
2022-08-14T00:39:31.393Z,94.60
2022-08-14T00:41:59.081Z,94.70
2022-08-14T00:44:32.028Z,94.70
2022-08-14T00:47:04.295Z,95.30
2022-08-14T00:49:38.202Z,95.80
2022-08-14T00:52:17.644Z,95.40
2022-08-14T00:55:10.894Z,95.30
2022-08-14T00:57:41.849Z,95.50
2022-08-14T01:00:37.569Z,95.90
2022-08-14T01:03:20.079Z,96.10
2022-08-14T01:05:52.253Z,96.30
2022-08-14T01:08:52.137Z,96.20
2022-08-14T01:11:19.172Z,96.10
2022-08-14T01:14:25.795Z,96.10
2022-08-14T01:16:55.742Z,97.10
2022-08-14T01:19:43.654Z,96.70
2022-08-14T01:22:27.208Z,96.70
2022-08-14T01:25:15.918Z,97.40
2022-08-14T01:27:57.190Z,97.70
2022-08-14T01:30:26.587Z,97.20
2022-08-14T01:32:56.807Z,97.40
2022-08-14T01:36:03.816Z,97.40
2022-08-14T01:38:16.565Z,97.20
2022-08-14T01:40:51.673Z,97.10
2022-08-14T01:43:38.717Z,97.10
2022-08-14T01:46:08.546Z,97.00
2022-08-14T01:48:52.395Z,96.80
2022-08-14T01:51:24.669Z,96.90
2022-08-14T01:54:09.390Z,97.10
2022-08-14T01:56:46.414Z,97.50
2022-08-14T01:59:37.817Z,97.60
2022-08-14T02:02:19.640Z,97.60
2022-08-14T02:04:57.577Z,97.60
2022-08-14T02:07:34.807Z,97.80
2022-08-14T02:10:26.024Z,97.50
2022-08-14T02:12:57.524Z,97.60
2022-08-14T02:15:27.033Z,97.00
2022-08-14T02:17:54.373Z,96.90
2022-08-14T02:20:23.437Z,97.30
2022-08-14T02:23:01.094Z,97.30
2022-08-14T02:25:30.979Z,97.60
2022-08-14T02:28:23.515Z,97.90
2022-08-14T02:30:52.919Z,97.20
2022-08-14T02:33:22.517Z,97.80
2022-08-14T02:35:53.517Z,97.50
2022-08-14T02:38:34.979Z,97.60
2022-08-14T02:41:08.910Z,97.50
2022-08-14T02:43:51.558Z,97.60
2022-08-14T02:46:20.769Z,97.80
2022-08-14T02:49:03.009Z,98.60
2022-08-14T02:51:36.544Z,99.50
2022-08-14T02:54:09.818Z,99.70
2022-08-14T02:57:15.784Z,99.70
2022-08-14T02:59:34.202Z,99.90
2022-08-14T03:02:04.455Z,99.90
2022-08-14T03:04:33.637Z,99.90
2022-08-14T03:07:07.048Z,99.90
2022-08-14T03:09:42.358Z,99.90
2022-08-14T03:12:31.432Z,99.90
2022-08-14T03:15:19.208Z,99.90
2022-08-14T03:17:57.770Z,99.90
2022-08-14T03:20:30.460Z,99.90
2022-08-14T03:23:04.324Z,99.90
2022-08-14T03:25:34.019Z,99.90
2022-08-14T03:28:29.607Z,99.90
2022-08-14T03:31:04.322Z,99.90
2022-08-14T03:33:37.503Z,99.90
2022-08-14T03:37:37.422Z,99.90
2022-08-14T03:39:23.046Z,99.90
2022-08-14T03:41:59.957Z,99.90
2022-08-14T03:45:25.165Z,99.90
2022-08-14T03:47:20.715Z,99.90
2022-08-14T03:49:50.038Z,99.90
2022-08-14T03:52:39.395Z,99.90
2022-08-14T03:55:31.131Z,99.90
2022-08-14T03:58:00.422Z,99.90
2022-08-14T04:00:42.653Z,99.90
2022-08-14T04:03:18.238Z,99.90
2022-08-14T04:05:59.549Z,99.90
2022-08-14T04:08:30.968Z,99.90
2022-08-14T04:11:07.996Z,99.90
2022-08-14T04:13:42.885Z,99.90
2022-08-14T04:16:14.199Z,99.90
2022-08-14T04:18:43.897Z,99.90
2022-08-14T04:21:12.993Z,99.90
2022-08-14T04:23:42.861Z,99.90
2022-08-14T04:26:14.612Z,99.90
2022-08-14T04:29:07.912Z,99.90
2022-08-14T04:32:57.528Z,99.90
2022-08-14T04:34:20.769Z,99.90
2022-08-14T04:37:13.794Z,99.90
2022-08-14T04:40:22.712Z,99.90
2022-08-14T04:43:18.330Z,99.90
2022-08-14T04:46:55.623Z,99.90
2022-08-14T04:49:02.156Z,99.90
2022-08-14T04:51:46.222Z,99.90
2022-08-14T04:54:15.008Z,99.90
2022-08-14T04:56:45.437Z,99.90
2022-08-14T04:59:13.123Z,99.90
2022-08-14T05:01:56.882Z,99.90
2022-08-14T05:04:25.119Z,99.90
2022-08-14T05:06:57.426Z,99.90
2022-08-14T05:09:29.063Z,99.90
2022-08-14T05:13:08.309Z,99.90
2022-08-14T05:14:54.852Z,99.90
2022-08-14T05:17:43.646Z,99.90
2022-08-14T05:21:04.859Z,99.90
2022-08-14T05:22:59.802Z,99.90
2022-08-14T05:25:34.135Z,99.30
2022-08-14T05:28:23.165Z,99.30
2022-08-14T05:30:55.548Z,99.10
2022-08-14T05:36:32.292Z,98.80
2022-08-14T05:39:27.346Z,99.10
2022-08-14T05:42:22.156Z,98.90
2022-08-14T05:45:11.003Z,99.90
2022-08-14T05:47:56.685Z,99.90
2022-08-14T05:50:29.284Z,99.90
2022-08-14T05:54:00.030Z,99.90
2022-08-14T06:00:38.592Z,99.40
2022-08-14T06:06:21.645Z,99.90
2022-08-14T06:09:01.502Z,99.90
2022-08-14T06:11:51.069Z,99.90
2022-08-14T06:14:38.775Z,99.90
2022-08-14T06:17:47.476Z,99.90
2022-08-14T06:20:47.311Z,99.90
2022-08-14T06:23:16.719Z,99.90
2022-08-14T06:26:30.612Z,99.90
2022-08-14T06:29:17.013Z,99.90
2022-08-14T06:35:03.835Z,99.90
2022-08-14T06:40:48.012Z,99.90
2022-08-14T06:43:32.594Z,99.90
2022-08-14T06:46:22.296Z,99.90
2022-08-14T06:48:57.340Z,99.90
2022-08-14T06:51:25.382Z,99.90
2022-08-14T06:54:06.444Z,99.90
2022-08-14T06:56:37.637Z,99.90
2022-08-14T06:59:19.727Z,99.90
2022-08-14T07:02:17.785Z,99.90
2022-08-14T07:05:20.839Z,99.90
2022-08-14T07:08:02.206Z,99.90
2022-08-14T07:10:32.107Z,99.90
2022-08-14T07:13:04.355Z,99.90
2022-08-14T07:15:55.253Z,99.90
2022-08-14T07:18:23.504Z,99.90
2022-08-14T07:20:51.103Z,99.90
2022-08-14T07:23:20.977Z,99.90
2022-08-14T07:25:52.032Z,99.90
2022-08-14T07:28:43.082Z,99.90
2022-08-14T07:31:13.188Z,99.90
2022-08-14T07:33:59.555Z,99.90
2022-08-14T07:36:30.571Z,99.90
2022-08-14T07:39:12.478Z,99.90
2022-08-14T07:41:45.264Z,99.90
2022-08-14T07:46:58.204Z,97.60
2022-08-14T07:49:27.431Z,98.10
2022-08-14T07:51:56.773Z,98.10
2022-08-14T07:54:29.694Z,98.10
2022-08-14T07:57:11.778Z,98.10
2022-08-14T07:59:46.863Z,96.90
2022-08-14T08:02:20.625Z,96.90
2022-08-14T08:05:15.881Z,96.80
2022-08-14T08:07:48.572Z,97.40
2022-08-14T08:11:02.917Z,97.30
2022-08-14T08:13:49.068Z,95.70
2022-08-14T08:16:29.553Z,95.10
2022-08-14T08:19:02.822Z,94.80
2022-08-14T08:21:33.362Z,93.60
2022-08-14T08:24:04.412Z,94.00
2022-08-14T08:26:31.946Z,93.10
2022-08-14T08:28:59.626Z,93.70
2022-08-14T08:31:33.104Z,94.20
2022-08-14T08:34:06.470Z,94.10
2022-08-14T08:36:42.901Z,92.00
2022-08-14T08:39:22.341Z,91.40
2022-08-14T08:41:53.513Z,92.20
2022-08-14T08:44:32.824Z,90.50
2022-08-14T08:47:06.977Z,91.30
2022-08-14T08:49:48.464Z,91.40
2022-08-14T08:52:24.846Z,90.00
2022-08-14T08:54:56.369Z,89.70
2022-08-14T08:57:24.048Z,90.30
2022-08-14T08:59:55.006Z,88.90
2022-08-14T09:02:22.946Z,87.50
2022-08-14T09:05:04.021Z,87.90
2022-08-14T09:07:32.148Z,87.20
2022-08-14T09:10:01.110Z,84.40
2022-08-14T09:12:31.736Z,83.00
2022-08-14T09:15:12.119Z,83.10
2022-08-14T09:17:42.070Z,81.00
2022-08-14T09:20:12.834Z,80.80
2022-08-14T09:22:47.543Z,80.90
2022-08-14T09:25:19.586Z,80.00
2022-08-14T09:27:47.664Z,80.00
2022-08-14T09:30:32.988Z,79.00
2022-08-14T09:33:11.539Z,77.60
2022-08-14T09:35:58.191Z,78.50
2022-08-14T09:38:45.831Z,79.10
2022-08-14T09:42:21.435Z,79.60
2022-08-14T09:44:50.793Z,80.00
2022-08-14T09:47:18.800Z,76.90
2022-08-14T09:49:52.052Z,75.60
2022-08-14T09:52:32.819Z,75.60
2022-08-14T09:55:03.239Z,76.50
2022-08-14T09:57:31.761Z,76.00
2022-08-14T10:00:09.945Z,74.50
2022-08-14T10:03:05.151Z,73.40
2022-08-14T10:05:38.057Z,73.50
2022-08-14T10:08:26.400Z,72.70
2022-08-14T10:11:02.335Z,71.80
2022-08-14T10:13:52.402Z,73.20
2022-08-14T10:16:21.921Z,72.30
2022-08-14T10:19:10.471Z,72.70
2022-08-14T10:21:58.397Z,71.30
2022-08-14T10:24:46.426Z,73.40
2022-08-14T10:27:23.350Z,71.50
2022-08-14T10:29:54.419Z,72.60
2022-08-14T10:32:28.063Z,73.30
2022-08-14T10:35:13.661Z,71.70
2022-08-14T10:37:52.034Z,73.80
2022-08-14T10:40:44.090Z,71.50
2022-08-14T10:43:27.718Z,70.40
2022-08-14T10:46:58.903Z,72.60
2022-08-14T10:49:04.407Z,72.30
2022-08-14T10:51:41.646Z,71.80
2022-08-14T10:54:17.067Z,71.50
2022-08-14T10:57:11.381Z,71.70
2022-08-14T10:59:49.948Z,69.70
2022-08-14T11:02:36.140Z,70.90
2022-08-14T11:08:42.691Z,69.50
2022-08-14T11:11:14.869Z,71.00
2022-08-14T11:14:18.453Z,69.20
2022-08-14T11:16:53.696Z,68.90
2022-08-14T11:19:25.083Z,66.20
2022-08-14T11:22:01.138Z,63.80
2022-08-14T11:24:54.246Z,64.70
2022-08-14T11:27:22.127Z,65.70
2022-08-14T11:30:50.054Z,63.10
2022-08-14T11:32:52.345Z,64.00
2022-08-14T11:35:23.080Z,66.30
2022-08-14T11:37:56.939Z,65.30
2022-08-14T11:40:29.551Z,65.70
2022-08-14T11:42:59.678Z,66.20
2022-08-14T11:45:33.770Z,64.50
2022-08-14T11:49:01.727Z,66.40
2022-08-14T11:51:18.876Z,63.70
2022-08-14T11:53:55.237Z,66.70
2022-08-14T11:56:25.772Z,64.50
2022-08-14T11:58:58.625Z,63.30
2022-08-14T12:01:31.210Z,62.40
2022-08-14T12:04:31.805Z,61.60
2022-08-14T12:07:01.746Z,63.50
2022-08-14T12:09:34.784Z,63.30
2022-08-14T12:12:36.166Z,62.20
2022-08-14T12:15:35.963Z,61.50
2022-08-14T12:18:04.757Z,61.30
2022-08-14T12:20:34.555Z,60.20
2022-08-14T12:23:20.899Z,58.30
2022-08-14T12:26:01.449Z,60.00
2022-08-14T12:29:00.071Z,58.50
2022-08-14T12:31:28.133Z,59.40
2022-08-14T12:34:13.556Z,59.10
2022-08-14T12:36:50.291Z,57.90
2022-08-14T12:39:26.926Z,58.60
2022-08-14T12:42:01.475Z,59.40
2022-08-14T12:44:32.103Z,59.70
2022-08-14T12:47:20.312Z,60.10
2022-08-14T12:49:52.969Z,60.30
2022-08-14T12:52:42.994Z,61.60
2022-08-14T12:55:20.899Z,60.20
2022-08-14T12:57:53.156Z,59.40
2022-08-14T13:00:24.153Z,59.60
2022-08-14T13:02:56.462Z,59.50
2022-08-14T13:05:29.966Z,59.90
2022-08-14T13:07:59.192Z,60.40
2022-08-14T13:10:51.361Z,59.50
2022-08-14T13:13:20.674Z,59.10
2022-08-14T13:15:56.315Z,61.70
2022-08-14T13:18:32.878Z,60.00
2022-08-14T13:21:05.616Z,59.80
2022-08-14T13:23:36.162Z,59.60
2022-08-14T13:26:04.080Z,60.60
2022-08-14T13:28:39.696Z,60.20
2022-08-14T13:31:29.971Z,59.90
2022-08-14T13:34:03.340Z,59.50
2022-08-14T13:36:51.534Z,61.60
2022-08-14T13:39:23.472Z,60.80
2022-08-14T13:41:55.618Z,59.80
2022-08-14T13:44:27.713Z,59.20
2022-08-14T13:46:59.821Z,59.80
2022-08-14T13:49:31.369Z,58.90
2022-08-14T13:52:03.485Z,59.50
2022-08-14T13:54:46.034Z,58.50
2022-08-14T13:57:18.592Z,59.80
2022-08-14T13:59:51.259Z,58.70
2022-08-14T14:02:33.790Z,59.20
2022-08-14T14:05:04.923Z,59.70
2022-08-14T14:07:34.744Z,61.00
2022-08-14T14:10:09.667Z,56.90
2022-08-14T14:12:41.357Z,57.40
2022-08-14T14:15:11.866Z,57.00
2022-08-14T14:17:40.074Z,55.90
2022-08-14T14:20:15.108Z,57.70
2022-08-14T14:23:03.407Z,57.30
2022-08-14T14:25:47.985Z,57.70
2022-08-14T14:28:24.299Z,57.70
2022-08-14T14:30:57.218Z,58.20
2022-08-14T14:36:21.711Z,58.20
2022-08-14T14:39:01.236Z,58.50
2022-08-14T14:41:38.571Z,57.50
2022-08-14T14:44:13.485Z,58.60
2022-08-14T14:46:50.523Z,56.50
2022-08-14T14:49:21.926Z,56.80
2022-08-14T14:51:51.550Z,56.20
2022-08-14T14:54:31.413Z,56.60
2022-08-14T14:57:00.548Z,56.10
2022-08-14T14:59:33.445Z,57.50
2022-08-14T15:02:09.377Z,57.10
2022-08-14T15:04:39.099Z,55.30
2022-08-14T15:07:12.344Z,55.20
2022-08-14T15:09:41.149Z,55.10
2022-08-14T15:12:34.739Z,55.80
2022-08-14T15:14:58.187Z,56.80
2022-08-14T15:17:59.010Z,56.50
2022-08-14T15:20:30.655Z,56.90
2022-08-14T15:23:08.098Z,57.30
2022-08-14T15:25:42.122Z,55.90
2022-08-14T15:28:20.846Z,56.80
2022-08-14T15:30:58.965Z,57.10
2022-08-14T15:34:00.992Z,57.40
2022-08-14T15:36:35.280Z,58.80
2022-08-14T15:39:03.552Z,59.20
2022-08-14T15:41:41.624Z,58.60
2022-08-14T15:44:25.284Z,58.90
2022-08-14T15:46:59.657Z,59.20
2022-08-14T15:49:34.792Z,57.30
2022-08-14T15:52:04.615Z,58.00
2022-08-14T15:54:33.883Z,57.30
2022-08-14T15:57:08.305Z,57.50
2022-08-14T15:59:58.417Z,58.20
2022-08-14T16:02:28.135Z,59.80
2022-08-14T16:04:56.800Z,61.50
2022-08-14T16:07:33.840Z,60.10
2022-08-14T16:10:29.159Z,59.10
2022-08-14T16:13:02.186Z,61.10
2022-08-14T16:15:31.389Z,61.50
2022-08-14T16:18:08.232Z,60.40
2022-08-14T16:21:12.021Z,62.60
2022-08-14T16:23:55.650Z,63.30
2022-08-14T16:26:29.221Z,60.50
2022-08-14T16:29:19.642Z,59.60
2022-08-14T16:31:51.521Z,60.60
2022-08-14T16:34:45.882Z,60.00
2022-08-14T16:37:13.443Z,60.30
2022-08-14T16:39:41.927Z,60.20
2022-08-14T16:43:02.387Z,61.40
2022-08-14T16:44:59.925Z,61.90
2022-08-14T16:47:31.991Z,62.90
2022-08-14T16:50:09.160Z,63.00
2022-08-14T16:52:44.124Z,63.70
2022-08-14T16:55:14.306Z,64.10
2022-08-14T16:57:54.501Z,63.80
2022-08-14T17:00:43.680Z,64.50
2022-08-14T17:03:12.788Z,64.40
2022-08-14T17:05:46.960Z,64.50
2022-08-14T17:08:31.673Z,64.80
2022-08-14T17:11:13.187Z,64.00
2022-08-14T17:13:58.268Z,64.60
2022-08-14T17:16:37.581Z,64.70
2022-08-14T17:19:11.614Z,64.80
2022-08-14T17:21:47.557Z,65.30
2022-08-14T17:24:56.741Z,65.90
2022-08-14T17:27:09.250Z,66.60
2022-08-14T17:30:00.501Z,67.80
2022-08-14T17:32:55.620Z,67.40
2022-08-14T17:35:57.663Z,67.80
2022-08-14T17:38:39.093Z,67.80
2022-08-14T17:41:22.851Z,68.50
2022-08-14T17:43:54.913Z,68.20
2022-08-14T17:46:43.363Z,67.20
2022-08-14T17:49:20.822Z,68.40
2022-08-14T17:52:01.681Z,68.30
2022-08-14T17:54:35.258Z,69.00
2022-08-14T17:57:14.098Z,68.80
2022-08-14T17:59:50.680Z,68.80
2022-08-14T18:02:31.294Z,68.80
2022-08-14T18:05:09.787Z,69.20
2022-08-14T18:08:00.241Z,69.40
2022-08-14T18:10:53.010Z,69.30
2022-08-14T18:13:19.971Z,69.40
2022-08-14T18:16:08.351Z,70.60
2022-08-14T18:19:54.604Z,70.70
2022-08-14T18:22:32.351Z,70.50
2022-08-14T18:25:19.369Z,71.20
2022-08-14T18:27:51.645Z,71.60
2022-08-14T18:30:36.449Z,71.50
2022-08-14T18:33:22.617Z,71.80
2022-08-14T18:35:59.999Z,71.30
2022-08-14T18:38:45.508Z,70.60
2022-08-14T18:41:37.284Z,72.60
2022-08-14T18:44:10.469Z,73.20
2022-08-14T18:47:14.840Z,73.80
2022-08-14T18:49:57.986Z,72.50
2022-08-14T18:52:37.505Z,72.10
2022-08-14T18:55:18.114Z,72.70
2022-08-14T18:58:25.972Z,72.80
2022-08-14T19:00:56.266Z,73.00
2022-08-14T19:03:37.258Z,73.70
2022-08-14T19:06:08.404Z,74.00
2022-08-14T19:08:45.694Z,74.30
2022-08-14T19:11:36.133Z,74.10
2022-08-14T19:14:06.697Z,74.70
2022-08-14T19:16:35.213Z,74.60
2022-08-14T19:19:06.892Z,74.60
2022-08-14T19:21:38.609Z,75.30
2022-08-14T19:24:27.754Z,75.50
2022-08-14T19:27:16.745Z,76.40
2022-08-14T19:29:47.599Z,76.90
2022-08-14T19:32:39.705Z,78.30
2022-08-14T19:35:20.122Z,76.70
2022-08-14T19:37:54.079Z,77.80
2022-08-14T19:40:57.395Z,77.70
2022-08-14T19:43:55.505Z,76.60
2022-08-14T19:46:39.394Z,76.70
2022-08-14T19:49:12.180Z,77.10
2022-08-14T19:51:44.847Z,78.50
2022-08-14T19:54:15.037Z,79.20
2022-08-14T19:56:45.058Z,79.10
2022-08-14T19:59:19.276Z,80.10
2022-08-14T20:01:54.399Z,79.70
2022-08-14T20:04:47.794Z,77.80
2022-08-14T20:07:59.157Z,79.70
2022-08-14T20:11:04.857Z,78.30
2022-08-14T20:13:32.908Z,79.30
2022-08-14T20:16:12.910Z,79.40
2022-08-14T20:18:50.438Z,80.50
2022-08-14T20:21:21.551Z,80.10
2022-08-14T20:23:50.150Z,78.90
2022-08-14T20:26:31.735Z,80.20
2022-08-14T20:29:04.813Z,81.40
2022-08-14T20:31:38.605Z,80.60
2022-08-14T20:34:18.904Z,80.40
2022-08-14T20:37:10.094Z,79.80
2022-08-14T20:39:43.599Z,75.40
2022-08-14T20:42:37.211Z,75.30
2022-08-14T20:45:24.898Z,75.20
2022-08-14T20:48:53.254Z,75.90
2022-08-14T20:51:26.237Z,75.50
2022-08-14T20:54:07.453Z,76.40
2022-08-14T20:56:38.390Z,77.40
2022-08-14T20:59:39.221Z,77.90
2022-08-14T21:02:46.688Z,78.30
2022-08-14T21:05:33.470Z,78.80
2022-08-14T21:08:08.239Z,78.90
2022-08-14T21:10:55.073Z,79.80
2022-08-14T21:14:18.731Z,80.50
2022-08-14T21:16:33.604Z,80.80
2022-08-14T21:19:05.730Z,80.90
2022-08-14T21:21:42.551Z,81.60
2022-08-14T21:24:39.868Z,82.10
2022-08-14T21:27:23.586Z,80.30
2022-08-14T21:29:55.043Z,79.10
2022-08-14T21:32:47.233Z,78.40
2022-08-14T21:35:24.379Z,80.70
2022-08-14T21:37:55.279Z,80.10
2022-08-14T21:40:46.465Z,79.60
2022-08-14T21:43:19.304Z,78.80
2022-08-14T21:46:03.717Z,79.80
2022-08-14T21:48:35.847Z,80.10
2022-08-14T21:51:53.418Z,81.30
2022-08-14T21:54:04.293Z,81.50
2022-08-14T21:56:38.895Z,81.40
2022-08-14T21:59:22.603Z,80.60
2022-08-14T22:02:00.749Z,80.40
2022-08-14T22:04:34.425Z,80.30
2022-08-14T22:07:13.074Z,80.10
2022-08-14T22:09:55.290Z,79.80
2022-08-14T22:12:57.423Z,79.80
2022-08-14T22:15:31.109Z,79.90
2022-08-14T22:18:07.035Z,80.40
2022-08-14T22:20:43.019Z,80.80
2022-08-14T22:23:32.272Z,80.90
2022-08-14T22:26:05.192Z,81.80
2022-08-14T22:28:33.677Z,82.60
2022-08-14T22:31:23.019Z,83.10
2022-08-14T22:34:04.702Z,81.80
2022-08-14T22:37:12.371Z,81.80
2022-08-14T22:40:46.398Z,82.30
2022-08-14T22:42:27.581Z,82.60
2022-08-14T22:45:10.424Z,83.40
2022-08-14T22:47:51.724Z,84.20
2022-08-14T22:50:48.726Z,85.00
2022-08-14T22:53:40.583Z,84.00
2022-08-14T22:56:20.956Z,85.50
2022-08-14T22:58:53.748Z,87.00
2022-08-14T23:02:07.503Z,85.90
2022-08-14T23:04:56.738Z,85.80
2022-08-14T23:08:57.859Z,85.40
2022-08-14T23:10:32.543Z,86.40
2022-08-14T23:13:18.018Z,86.60
2022-08-14T23:15:55.297Z,86.70
2022-08-14T23:18:24.178Z,86.00
2022-08-14T23:21:00.427Z,86.30
2022-08-14T23:23:45.995Z,86.90
2022-08-14T23:26:49.847Z,85.90
2022-08-14T23:29:37.780Z,85.60
2022-08-14T23:32:15.440Z,85.10
2022-08-14T23:34:48.237Z,84.80
2022-08-14T23:37:19.336Z,84.80
2022-08-14T23:41:04.251Z,84.50
2022-08-14T23:43:37.897Z,84.30
2022-08-14T23:46:12.645Z,84.10
2022-08-14T23:49:04.901Z,83.90
2022-08-14T23:51:38.654Z,84.40
2022-08-14T23:54:48.920Z,85.90
2022-08-14T23:57:00.043Z,86.10
2022-08-14T23:59:45.133Z,85.40
